sensor_id;sensor_type;location;lat;lon;timestamp;pressure;altitude;pressure_sealevel;temperature;humidity
28588;BME280;15787;49.662;10.162;2022-10-16T00:01:04;98944.88;;;16.68;100.00
28588;BME280;15787;49.662;10.162;2022-10-16T00:03:32;98934.13;;;16.49;100.00
28588;BME280;15787;49.662;10.162;2022-10-16T00:06:01;98930.06;;;16.40;100.00
28588;BME280;15787;49.662;10.162;2022-10-16T00:08:29;98930.34;;;16.52;100.00
28588;BME280;15787;49.662;10.162;2022-10-16T00:11:01;98925.28;;;16.83;100.00
28588;BME280;15787;49.662;10.162;2022-10-16T00:13:31;98929.75;;;16.57;100.00
28588;BME280;15787;49.662;10.162;2022-10-16T00:16:00;98926.28;;;16.53;100.00
28588;BME280;15787;49.662;10.162;2022-10-16T00:18:29;98919.19;;;16.06;100.00
28588;BME280;15787;49.662;10.162;2022-10-16T00:21:02;98917.06;;;16.52;100.00
28588;BME280;15787;49.662;10.162;2022-10-16T00:23:30;98931.63;;;16.41;100.00
28588;BME280;15787;49.662;10.162;2022-10-16T00:26:01;98924.56;;;16.55;100.00
28588;BME280;15787;49.662;10.162;2022-10-16T00:28:29;98925.06;;;16.44;100.00
28588;BME280;15787;49.662;10.162;2022-10-16T00:30:57;98934.81;;;16.16;100.00
28588;BME280;15787;49.662;10.162;2022-10-16T00:33:26;98922.28;;;16.17;100.00
28588;BME280;15787;49.662;10.162;2022-10-16T00:35:54;98921.19;;;15.97;100.00
28588;BME280;15787;49.662;10.162;2022-10-16T00:38:25;98916.66;;;15.99;100.00
28588;BME280;15787;49.662;10.162;2022-10-16T00:40:53;98910.41;;;16.13;100.00
28588;BME280;15787;49.662;10.162;2022-10-16T00:43:37;98901.78;;;16.08;100.00
28588;BME280;15787;49.662;10.162;2022-10-16T00:46:12;98902.28;;;15.97;100.00
28588;BME280;15787;49.662;10.162;2022-10-16T00:48:46;98913.06;;;16.08;100.00
28588;BME280;15787;49.662;10.162;2022-10-16T00:51:18;98902.72;;;16.14;100.00
28588;BME280;15787;49.662;10.162;2022-10-16T00:53:47;98905.06;;;16.15;100.00
28588;BME280;15787;49.662;10.162;2022-10-16T00:56:16;98914.63;;;16.00;100.00
28588;BME280;15787;49.662;10.162;2022-10-16T00:58:44;98922.78;;;16.07;100.00
28588;BME280;15787;49.662;10.162;2022-10-16T01:01:12;98929.66;;;15.97;100.00
28588;BME280;15787;49.662;10.162;2022-10-16T01:03:40;98930.75;;;15.99;100.00
28588;BME280;15787;49.662;10.162;2022-10-16T01:06:22;98925.78;;;15.76;100.00
28588;BME280;15787;49.662;10.162;2022-10-16T01:09:11;98936.72;;;15.83;100.00
28588;BME280;15787;49.662;10.162;2022-10-16T01:11:50;98943.09;;;16.02;100.00
28588;BME280;15787;49.662;10.162;2022-10-16T01:14:31;98948.75;;;15.84;100.00
28588;BME280;15787;49.662;10.162;2022-10-16T01:17:04;98940.94;;;15.78;100.00
28588;BME280;15787;49.662;10.162;2022-10-16T01:19:50;98945.00;;;15.77;100.00
28588;BME280;15787;49.662;10.162;2022-10-16T01:22:25;98934.34;;;15.81;100.00
28588;BME280;15787;49.662;10.162;2022-10-16T01:24:55;98950.16;;;15.88;100.00
28588;BME280;15787;49.662;10.162;2022-10-16T01:27:30;98947.97;;;15.92;100.00
28588;BME280;15787;49.662;10.162;2022-10-16T01:30:07;98945.47;;;15.85;100.00
28588;BME280;15787;49.662;10.162;2022-10-16T01:32:41;98942.66;;;15.85;100.00
28588;BME280;15787;49.662;10.162;2022-10-16T01:35:11;98942.50;;;15.89;100.00
28588;BME280;15787;49.662;10.162;2022-10-16T01:37:46;98947.97;;;15.92;100.00
28588;BME280;15787;49.662;10.162;2022-10-16T01:40:17;98933.56;;;15.90;100.00
28588;BME280;15787;49.662;10.162;2022-10-16T01:42:50;98945.16;;;15.83;100.00
28588;BME280;15787;49.662;10.162;2022-10-16T01:45:21;98945.59;;;16.18;100.00
28588;BME280;15787;49.662;10.162;2022-10-16T01:47:50;98952.81;;;16.01;100.00
28588;BME280;15787;49.662;10.162;2022-10-16T01:50:20;98948.88;;;15.89;100.00
28588;BME280;15787;49.662;10.162;2022-10-16T01:52:51;98948.28;;;16.03;100.00
28588;BME280;15787;49.662;10.162;2022-10-16T01:55:25;98954.22;;;16.05;100.00
28588;BME280;15787;49.662;10.162;2022-10-16T01:57:59;98973.31;;;16.10;100.00
28588;BME280;15787;49.662;10.162;2022-10-16T02:00:29;98961.41;;;15.97;100.00
28588;BME280;15787;49.662;10.162;2022-10-16T02:02:59;98975.78;;;15.99;100.00
28588;BME280;15787;49.662;10.162;2022-10-16T02:05:32;98967.66;;;15.92;100.00
28588;BME280;15787;49.662;10.162;2022-10-16T02:08:02;98963.44;;;16.15;100.00
28588;BME280;15787;49.662;10.162;2022-10-16T02:10:32;98966.41;;;16.02;100.00
28588;BME280;15787;49.662;10.162;2022-10-16T02:13:08;98961.44;;;16.06;100.00
28588;BME280;15787;49.662;10.162;2022-10-16T02:15:37;98955.63;;;16.10;100.00
28588;BME280;15787;49.662;10.162;2022-10-16T02:18:06;98951.09;;;15.94;100.00
28588;BME280;15787;49.662;10.162;2022-10-16T02:20:40;98946.25;;;15.86;100.00
28588;BME280;15787;49.662;10.162;2022-10-16T02:23:15;98951.41;;;16.14;100.00
28588;BME280;15787;49.662;10.162;2022-10-16T02:25:47;98950.44;;;15.99;100.00
28588;BME280;15787;49.662;10.162;2022-10-16T02:28:18;98953.44;;;15.96;100.00
28588;BME280;15787;49.662;10.162;2022-10-16T02:30:50;98951.72;;;15.98;100.00
28588;BME280;15787;49.662;10.162;2022-10-16T02:33:21;98956.88;;;15.91;100.00
28588;BME280;15787;49.662;10.162;2022-10-16T02:35:51;98966.09;;;16.27;100.00
28588;BME280;15787;49.662;10.162;2022-10-16T02:38:20;98968.59;;;16.34;100.00
28588;BME280;15787;49.662;10.162;2022-10-16T02:40:49;98959.41;;;16.07;100.00
28588;BME280;15787;49.662;10.162;2022-10-16T02:43:18;98967.53;;;16.14;100.00
28588;BME280;15787;49.662;10.162;2022-10-16T02:45:46;98972.22;;;15.90;100.00
28588;BME280;15787;49.662;10.162;2022-10-16T02:48:14;98971.41;;;15.89;100.00
28588;BME280;15787;49.662;10.162;2022-10-16T02:50:42;98966.25;;;16.15;100.00
28588;BME280;15787;49.662;10.162;2022-10-16T02:53:10;98975.16;;;16.40;100.00
28588;BME280;15787;49.662;10.162;2022-10-16T02:55:38;98970.63;;;16.34;100.00
28588;BME280;15787;49.662;10.162;2022-10-16T02:58:06;98974.66;;;16.51;100.00
28588;BME280;15787;49.662;10.162;2022-10-16T03:00:35;98977.69;;;16.29;100.00
28588;BME280;15787;49.662;10.162;2022-10-16T03:03:03;98980.78;;;16.50;100.00
28588;BME280;15787;49.662;10.162;2022-10-16T03:05:31;98973.56;;;16.49;100.00
28588;BME280;15787;49.662;10.162;2022-10-16T03:07:59;98971.09;;;16.32;100.00
28588;BME280;15787;49.662;10.162;2022-10-16T03:10:27;98972.78;;;16.48;100.00
28588;BME280;15787;49.662;10.162;2022-10-16T03:12:56;98975.44;;;16.52;100.00
28588;BME280;15787;49.662;10.162;2022-10-16T03:15:23;98975.00;;;16.35;100.00
28588;BME280;15787;49.662;10.162;2022-10-16T03:17:53;98975.16;;;16.40;100.00
28588;BME280;15787;49.662;10.162;2022-10-16T03:20:21;98974.34;;;16.40;100.00
28588;BME280;15787;49.662;10.162;2022-10-16T03:22:49;98973.00;;;16.26;100.00
28588;BME280;15787;49.662;10.162;2022-10-16T03:25:17;98975.28;;;16.46;100.00
28588;BME280;15787;49.662;10.162;2022-10-16T03:27:45;98979.06;;;16.43;100.00
28588;BME280;15787;49.662;10.162;2022-10-16T03:30:13;98981.88;;;16.70;100.00
28588;BME280;15787;49.662;10.162;2022-10-16T03:32:43;98972.97;;;16.54;100.00
28588;BME280;15787;49.662;10.162;2022-10-16T03:35:13;98976.56;;;16.54;100.00
28588;BME280;15787;49.662;10.162;2022-10-16T03:37:40;98976.75;;;16.23;100.00
28588;BME280;15787;49.662;10.162;2022-10-16T03:40:09;98981.44;;;16.26;100.00
28588;BME280;15787;49.662;10.162;2022-10-16T03:42:37;98978.31;;;16.24;100.00
28588;BME280;15787;49.662;10.162;2022-10-16T03:45:06;98979.56;;;16.23;100.00
28588;BME280;15787;49.662;10.162;2022-10-16T03:47:34;98973.91;;;16.32;100.00
28588;BME280;15787;49.662;10.162;2022-10-16T03:50:02;98980.81;;;16.13;100.00
28588;BME280;15787;49.662;10.162;2022-10-16T03:52:31;98978.47;;;16.21;100.00
28588;BME280;15787;49.662;10.162;2022-10-16T03:54:59;98976.75;;;16.14;100.00
28588;BME280;15787;49.662;10.162;2022-10-16T03:57:27;98966.59;;;16.17;100.00
28588;BME280;15787;49.662;10.162;2022-10-16T03:59:55;98973.47;;;16.16;100.00
28588;BME280;15787;49.662;10.162;2022-10-16T04:02:23;98975.97;;;16.14;100.00
28588;BME280;15787;49.662;10.162;2022-10-16T04:04:51;98972.69;;;16.24;100.00
28588;BME280;15787;49.662;10.162;2022-10-16T04:07:19;98972.06;;;16.29;100.00
28588;BME280;15787;49.662;10.162;2022-10-16T04:09:48;98981.13;;;16.24;100.00
28588;BME280;15787;49.662;10.162;2022-10-16T04:12:18;98993.94;;;16.25;100.00
28588;BME280;15787;49.662;10.162;2022-10-16T04:14:46;98991.78;;;16.29;100.00
28588;BME280;15787;49.662;10.162;2022-10-16T04:17:14;98999.13;;;16.27;100.00
28588;BME280;15787;49.662;10.162;2022-10-16T04:19:42;98992.88;;;16.32;100.00
28588;BME280;15787;49.662;10.162;2022-10-16T04:22:10;99003.34;;;16.22;100.00
28588;BME280;15787;49.662;10.162;2022-10-16T04:24:38;98998.03;;;16.15;100.00
28588;BME280;15787;49.662;10.162;2022-10-16T04:27:07;99002.13;;;16.14;100.00
28588;BME280;15787;49.662;10.162;2022-10-16T04:29:35;99008.50;;;16.15;100.00
28588;BME280;15787;49.662;10.162;2022-10-16T04:32:03;99005.06;;;16.20;100.00
28588;BME280;15787;49.662;10.162;2022-10-16T04:34:31;99011.03;;;16.22;100.00
28588;BME280;15787;49.662;10.162;2022-10-16T04:36:59;99007.41;;;16.30;100.00
28588;BME280;15787;49.662;10.162;2022-10-16T04:39:27;99013.53;;;16.29;100.00
28588;BME280;15787;49.662;10.162;2022-10-16T04:41:55;99007.91;;;16.29;100.00
28588;BME280;15787;49.662;10.162;2022-10-16T04:44:24;99011.94;;;16.28;100.00
28588;BME280;15787;49.662;10.162;2022-10-16T04:46:52;99015.25;;;16.26;100.00
28588;BME280;15787;49.662;10.162;2022-10-16T04:49:20;99015.25;;;16.26;100.00
28588;BME280;15787;49.662;10.162;2022-10-16T04:51:48;99013.38;;;16.23;100.00
28588;BME280;15787;49.662;10.162;2022-10-16T04:54:15;99024.50;;;16.27;100.00
28588;BME280;15787;49.662;10.162;2022-10-16T04:56:43;99016.66;;;16.22;100.00
28588;BME280;15787;49.662;10.162;2022-10-16T04:59:14;99022.28;;;16.31;100.00
28588;BME280;15787;49.662;10.162;2022-10-16T05:01:43;99031.38;;;16.26;100.00
28588;BME280;15787;49.662;10.162;2022-10-16T05:04:11;99024.00;;;16.28;100.00
28588;BME280;15787;49.662;10.162;2022-10-16T05:06:41;99034.50;;;16.28;100.00
28588;BME280;15787;49.662;10.162;2022-10-16T05:09:10;99043.25;;;16.39;100.00
28588;BME280;15787;49.662;10.162;2022-10-16T05:11:37;99042.16;;;16.27;100.00
28588;BME280;15787;49.662;10.162;2022-10-16T05:14:05;99041.69;;;16.29;100.00
28588;BME280;15787;49.662;10.162;2022-10-16T05:16:33;99035.91;;;16.23;100.00
28588;BME280;15787;49.662;10.162;2022-10-16T05:19:03;99036.38;;;16.31;100.00
28588;BME280;15787;49.662;10.162;2022-10-16T05:21:51;99035.44;;;16.34;100.00
28588;BME280;15787;49.662;10.162;2022-10-16T05:24:18;99026.19;;;16.33;100.00
28588;BME280;15787;49.662;10.162;2022-10-16T05:26:46;99030.75;;;16.22;100.00
28588;BME280;15787;49.662;10.162;2022-10-16T05:29:14;99029.03;;;16.24;100.00
28588;BME280;15787;49.662;10.162;2022-10-16T05:31:42;99045.91;;;16.33;100.00
28588;BME280;15787;49.662;10.162;2022-10-16T05:34:11;99049.66;;;16.49;100.00
28588;BME280;15787;49.662;10.162;2022-10-16T05:36:39;99047.66;;;16.31;100.00
28588;BME280;15787;49.662;10.162;2022-10-16T05:39:07;99037.78;;;16.08;100.00
28588;BME280;15787;49.662;10.162;2022-10-16T05:41:35;99045.13;;;16.06;100.00
28588;BME280;15787;49.662;10.162;2022-10-16T05:44:04;99042.78;;;16.04;100.00
28588;BME280;15787;49.662;10.162;2022-10-16T05:46:33;99046.53;;;16.01;100.00
28588;BME280;15787;49.662;10.162;2022-10-16T05:49:01;99050.31;;;16.16;100.00
28588;BME280;15787;49.662;10.162;2022-10-16T05:51:30;99057.97;;;16.16;100.00
28588;BME280;15787;49.662;10.162;2022-10-16T05:53:58;99060.31;;;16.17;100.00
28588;BME280;15787;49.662;10.162;2022-10-16T05:56:26;99056.25;;;16.09;100.00
28588;BME280;15787;49.662;10.162;2022-10-16T05:58:54;99055.00;;;16.10;100.00
28588;BME280;15787;49.662;10.162;2022-10-16T06:01:22;99053.09;;;15.98;100.00
28588;BME280;15787;49.662;10.162;2022-10-16T06:03:51;99062.47;;;15.95;100.00
28588;BME280;15787;49.662;10.162;2022-10-16T06:06:21;99049.50;;;15.89;100.00
28588;BME280;15787;49.662;10.162;2022-10-16T06:08:53;99050.56;;;15.73;100.00
28588;BME280;15787;49.662;10.162;2022-10-16T06:11:23;99047.78;;;15.91;100.00
28588;BME280;15787;49.662;10.162;2022-10-16T06:13:54;99055.72;;;15.74;100.00
28588;BME280;15787;49.662;10.162;2022-10-16T06:16:24;99057.16;;;15.88;100.00
28588;BME280;15787;49.662;10.162;2022-10-16T06:18:53;99069.03;;;15.83;100.00
28588;BME280;15787;49.662;10.162;2022-10-16T06:21:24;99083.00;;;15.96;100.00
28588;BME280;15787;49.662;10.162;2022-10-16T06:23:54;99086.38;;;15.81;100.00
28588;BME280;15787;49.662;10.162;2022-10-16T06:26:24;99081.78;;;15.57;100.00
28588;BME280;15787;49.662;10.162;2022-10-16T06:28:54;99075.91;;;15.73;100.00
28588;BME280;15787;49.662;10.162;2022-10-16T06:31:22;99079.16;;;15.71;100.00
28588;BME280;15787;49.662;10.162;2022-10-16T06:33:54;99081.16;;;15.62;100.00
28588;BME280;15787;49.662;10.162;2022-10-16T06:36:23;99082.31;;;15.73;100.00
28588;BME280;15787;49.662;10.162;2022-10-16T06:38:51;99086.84;;;15.71;100.00
28588;BME280;15787;49.662;10.162;2022-10-16T06:41:22;99092.94;;;15.69;100.00
28588;BME280;15787;49.662;10.162;2022-10-16T06:43:50;99099.66;;;15.72;100.00
28588;BME280;15787;49.662;10.162;2022-10-16T06:46:20;99096.06;;;15.71;100.00
28588;BME280;15787;49.662;10.162;2022-10-16T06:48:48;99093.91;;;15.75;100.00
28588;BME280;15787;49.662;10.162;2022-10-16T06:51:18;99098.25;;;15.76;100.00
28588;BME280;15787;49.662;10.162;2022-10-16T06:53:48;99098.09;;;15.71;100.00
28588;BME280;15787;49.662;10.162;2022-10-16T06:56:33;99098.41;;;15.73;100.00
28588;BME280;15787;49.662;10.162;2022-10-16T06:59:02;99110.34;;;15.86;100.00
28588;BME280;15787;49.662;10.162;2022-10-16T07:01:30;99111.28;;;15.83;100.00
28588;BME280;15787;49.662;10.162;2022-10-16T07:03:58;99111.59;;;15.94;100.00
28588;BME280;15787;49.662;10.162;2022-10-16T07:06:31;99114.28;;;15.89;100.00
28588;BME280;15787;49.662;10.162;2022-10-16T07:09:02;99108.78;;;15.94;100.00
28588;BME280;15787;49.662;10.162;2022-10-16T07:11:30;99119.59;;;15.96;100.00
28588;BME280;15787;49.662;10.162;2022-10-16T07:13:59;99114.13;;;16.01;100.00
28588;BME280;15787;49.662;10.162;2022-10-16T07:16:28;99115.09;;;16.16;100.00
28588;BME280;15787;49.662;10.162;2022-10-16T07:18:58;99109.16;;;16.14;100.00
28588;BME280;15787;49.662;10.162;2022-10-16T07:21:28;99117.88;;;16.07;100.00
28588;BME280;15787;49.662;10.162;2022-10-16T07:23:59;99118.38;;;16.15;100.00
28588;BME280;15787;49.662;10.162;2022-10-16T07:26:29;99130.47;;;16.24;100.00
28588;BME280;15787;49.662;10.162;2022-10-16T07:28:59;99142.66;;;16.30;100.00
28588;BME280;15787;49.662;10.162;2022-10-16T07:31:28;99144.25;;;16.31;100.00
28588;BME280;15787;49.662;10.162;2022-10-16T07:33:58;99160.22;;;16.43;100.00
28588;BME280;15787;49.662;10.162;2022-10-16T07:36:26;99160.88;;;16.57;100.00
28588;BME280;15787;49.662;10.162;2022-10-16T07:38:54;99162.44;;;16.58;100.00
28588;BME280;15787;49.662;10.162;2022-10-16T07:41:26;99163.38;;;16.64;100.00
28588;BME280;15787;49.662;10.162;2022-10-16T07:43:54;99173.88;;;16.54;100.00
28588;BME280;15787;49.662;10.162;2022-10-16T07:46:24;99167.44;;;16.63;100.00
28588;BME280;15787;49.662;10.162;2022-10-16T07:48:52;99157.75;;;16.55;100.00
28588;BME280;15787;49.662;10.162;2022-10-16T07:51:22;99159.50;;;16.70;100.00
28588;BME280;15787;49.662;10.162;2022-10-16T07:53:51;99165.91;;;16.62;100.00
28588;BME280;15787;49.662;10.162;2022-10-16T07:56:20;99158.88;;;16.75;100.00
28588;BME280;15787;49.662;10.162;2022-10-16T07:58:49;99164.50;;;16.75;100.00
28588;BME280;15787;49.662;10.162;2022-10-16T08:01:18;99170.28;;;16.72;100.00
28588;BME280;15787;49.662;10.162;2022-10-16T08:03:49;99169.81;;;16.91;100.00
28588;BME280;15787;49.662;10.162;2022-10-16T08:06:18;99174.81;;;16.96;100.00
28588;BME280;15787;49.662;10.162;2022-10-16T08:08:52;99182.19;;;16.94;100.00
28588;BME280;15787;49.662;10.162;2022-10-16T08:11:20;99192.50;;;17.06;100.00
28588;BME280;15787;49.662;10.162;2022-10-16T08:13:48;99192.50;;;17.06;100.00
28588;BME280;15787;49.662;10.162;2022-10-16T08:16:16;99188.41;;;17.25;100.00
28588;BME280;15787;49.662;10.162;2022-10-16T08:18:44;99194.53;;;17.33;100.00
28588;BME280;15787;49.662;10.162;2022-10-16T08:21:16;99192.50;;;17.15;100.00
28588;BME280;15787;49.662;10.162;2022-10-16T08:23:47;99196.25;;;17.30;100.00
28588;BME280;15787;49.662;10.162;2022-10-16T08:26:22;99186.66;;;17.46;100.00
28588;BME280;15787;49.662;10.162;2022-10-16T08:28:50;99193.09;;;17.37;100.00
28588;BME280;15787;49.662;10.162;2022-10-16T08:31:19;99197.47;;;17.56;100.00
28588;BME280;15787;49.662;10.162;2022-10-16T08:33:47;99198.88;;;17.61;100.00
28588;BME280;15787;49.662;10.162;2022-10-16T08:36:17;99214.03;;;17.73;100.00
28588;BME280;15787;49.662;10.162;2022-10-16T08:38:47;99212.44;;;17.90;100.00
28588;BME280;15787;49.662;10.162;2022-10-16T08:41:31;99215.03;;;17.60;100.00
28588;BME280;15787;49.662;10.162;2022-10-16T08:44:18;99218.91;;;17.72;100.00
28588;BME280;15787;49.662;10.162;2022-10-16T08:46:56;99225.19;;;17.76;100.00
28588;BME280;15787;49.662;10.162;2022-10-16T08:49:30;99218.47;;;18.06;100.00
28588;BME280;15787;49.662;10.162;2022-10-16T08:52:00;99233.63;;;18.18;100.00
28588;BME280;15787;49.662;10.162;2022-10-16T08:54:30;99230.34;;;17.87;100.00
28588;BME280;15787;49.662;10.162;2022-10-16T08:57:09;99242.53;;;18.35;100.00
28588;BME280;15787;49.662;10.162;2022-10-16T08:59:37;99243.56;;;18.13;100.00
28588;BME280;15787;49.662;10.162;2022-10-16T09:02:22;99251.47;;;18.33;100.00
28588;BME280;15787;49.662;10.162;2022-10-16T09:04:58;99249.94;;;18.23;100.00
28588;BME280;15787;49.662;10.162;2022-10-16T09:07:35;99247.38;;;18.01;100.00
28588;BME280;15787;49.662;10.162;2022-10-16T09:10:17;99243.97;;;17.97;100.00
28588;BME280;15787;49.662;10.162;2022-10-16T09:12:53;99242.69;;;17.98;100.00
28588;BME280;15787;49.662;10.162;2022-10-16T09:15:29;99241.44;;;18.32;100.00
28588;BME280;15787;49.662;10.162;2022-10-16T09:18:05;99254.66;;;18.26;100.00
28588;BME280;15787;49.662;10.162;2022-10-16T09:20:47;99257.91;;;18.33;100.00
28588;BME280;15787;49.662;10.162;2022-10-16T09:23:22;99258.53;;;18.38;100.00
28588;BME280;15787;49.662;10.162;2022-10-16T09:25:51;99261.22;;;18.32;100.00
28588;BME280;15787;49.662;10.162;2022-10-16T09:28:20;99250.94;;;18.44;100.00
28588;BME280;15787;49.662;10.162;2022-10-16T09:30:48;99268.25;;;18.37;100.00
28588;BME280;15787;49.662;10.162;2022-10-16T09:33:19;99256.34;;;18.33;100.00
28588;BME280;15787;49.662;10.162;2022-10-16T09:35:49;99258.13;;;18.21;100.00
28588;BME280;15787;49.662;10.162;2022-10-16T09:38:25;99267.59;;;18.51;100.00
28588;BME280;15787;49.662;10.162;2022-10-16T09:40:55;99267.81;;;18.38;100.00
28588;BME280;15787;49.662;10.162;2022-10-16T09:43:32;99264.00;;;18.50;100.00
28588;BME280;15787;49.662;10.162;2022-10-16T09:46:04;99266.47;;;18.57;100.00
28588;BME280;15787;49.662;10.162;2022-10-16T09:48:36;99265.97;;;18.82;100.00
28588;BME280;15787;49.662;10.162;2022-10-16T09:51:06;99275.13;;;18.77;100.00
28588;BME280;15787;49.662;10.162;2022-10-16T09:53:41;99283.69;;;18.68;100.00
28588;BME280;15787;49.662;10.162;2022-10-16T09:56:11;99271.59;;;18.68;100.00
28588;BME280;15787;49.662;10.162;2022-10-16T09:58:43;99272.88;;;19.05;100.00
28588;BME280;15787;49.662;10.162;2022-10-16T10:01:13;99277.06;;;18.95;100.00
28588;BME280;15787;49.662;10.162;2022-10-16T10:03:43;99279.41;;;18.97;100.00
28588;BME280;15787;49.662;10.162;2022-10-16T10:06:22;99281.75;;;18.98;100.00
28588;BME280;15787;49.662;10.162;2022-10-16T10:08:58;99286.69;;;18.88;100.00
28588;BME280;15787;49.662;10.162;2022-10-16T10:11:44;99283.41;;;19.05;100.00
28588;BME280;15787;49.662;10.162;2022-10-16T10:14:18;99279.78;;;19.28;100.00
28588;BME280;15787;49.662;10.162;2022-10-16T10:16:49;99272.09;;;19.05;100.00
28588;BME280;15787;49.662;10.162;2022-10-16T10:19:19;99270.00;;;19.14;100.00
28588;BME280;15787;49.662;10.162;2022-10-16T10:21:47;99282.22;;;19.35;100.00
28588;BME280;15787;49.662;10.162;2022-10-16T10:24:19;99288.16;;;19.22;100.00
28588;BME280;15787;49.662;10.162;2022-10-16T10:26:53;99296.06;;;19.42;100.00
28588;BME280;15787;49.662;10.162;2022-10-16T10:29:39;99290.91;;;19.55;100.00
28588;BME280;15787;49.662;10.162;2022-10-16T10:32:19;99286.13;;;19.76;100.00
28588;BME280;15787;49.662;10.162;2022-10-16T10:35:07;99286.91;;;20.05;100.00
28588;BME280;15787;49.662;10.162;2022-10-16T10:37:50;99285.53;;;20.30;100.00
28588;BME280;15787;49.662;10.162;2022-10-16T10:40:31;99288.84;;;20.43;96.12
28588;BME280;15787;49.662;10.162;2022-10-16T10:43:04;99294.75;;;20.95;96.16
28588;BME280;15787;49.662;10.162;2022-10-16T10:45:41;99287.31;;;21.63;92.13
28588;BME280;15787;49.662;10.162;2022-10-16T10:48:21;99289.41;;;21.02;89.70
28588;BME280;15787;49.662;10.162;2022-10-16T10:50:56;99293.19;;;21.14;93.03
28588;BME280;15787;49.662;10.162;2022-10-16T10:53:38;99317.41;;;21.29;92.23
28588;BME280;15787;49.662;10.162;2022-10-16T10:56:23;99352.88;;;20.64;95.85
28588;BME280;15787;49.662;10.162;2022-10-16T10:59:13;99362.28;;;19.97;100.00
28588;BME280;15787;49.662;10.162;2022-10-16T11:01:50;99344.91;;;19.51;100.00
28588;BME280;15787;49.662;10.162;2022-10-16T11:04:36;99344.44;;;19.29;100.00
28588;BME280;15787;49.662;10.162;2022-10-16T11:07:13;99343.63;;;19.29;100.00
28588;BME280;15787;49.662;10.162;2022-10-16T11:09:45;99340.75;;;19.38;100.00
28588;BME280;15787;49.662;10.162;2022-10-16T11:12:19;99343.09;;;19.78;100.00
28588;BME280;15787;49.662;10.162;2022-10-16T11:14:50;99326.19;;;20.42;100.00
28588;BME280;15787;49.662;10.162;2022-10-16T11:17:28;99333.16;;;20.75;100.00
28588;BME280;15787;49.662;10.162;2022-10-16T11:20:02;99337.50;;;21.06;100.00
28588;BME280;15787;49.662;10.162;2022-10-16T11:22:35;99336.44;;;20.89;100.00
28588;BME280;15787;49.662;10.162;2022-10-16T11:25:11;99340.16;;;20.95;100.00
28588;BME280;15787;49.662;10.162;2022-10-16T11:27:44;99345.31;;;20.76;100.00
28588;BME280;15787;49.662;10.162;2022-10-16T11:30:18;99339.56;;;20.91;100.00
28588;BME280;15787;49.662;10.162;2022-10-16T11:33:03;99329.06;;;20.62;100.00
28588;BME280;15787;49.662;10.162;2022-10-16T11:35:39;99334.38;;;20.69;100.00
28588;BME280;15787;49.662;10.162;2022-10-16T11:38:14;99333.81;;;21.20;100.00
28588;BME280;15787;49.662;10.162;2022-10-16T11:40:46;99321.88;;;21.36;100.00
28588;BME280;15787;49.662;10.162;2022-10-16T11:43:22;99314.97;;;21.63;100.00
28588;BME280;15787;49.662;10.162;2022-10-16T11:45:54;99320.47;;;22.23;100.00
28588;BME280;15787;49.662;10.162;2022-10-16T11:48:27;99324.19;;;22.03;100.00
28588;BME280;15787;49.662;10.162;2022-10-16T11:51:03;99312.50;;;21.50;100.00
28588;BME280;15787;49.662;10.162;2022-10-16T11:53:42;99312.38;;;21.65;100.00
28588;BME280;15787;49.662;10.162;2022-10-16T11:56:13;99304.28;;;21.32;100.00
28588;BME280;15787;49.662;10.162;2022-10-16T11:58:51;99308.75;;;21.18;100.00
28588;BME280;15787;49.662;10.162;2022-10-16T12:01:25;99304.13;;;21.67;99.13
28588;BME280;15787;49.662;10.162;2022-10-16T12:04:06;99301.00;;;21.39;100.00
28588;BME280;15787;49.662;10.162;2022-10-16T12:06:42;99301.34;;;21.47;100.00
28588;BME280;15787;49.662;10.162;2022-10-16T12:09:16;99299.09;;;21.56;100.00
28588;BME280;15787;49.662;10.162;2022-10-16T12:11:48;99299.84;;;21.77;100.00
28588;BME280;15787;49.662;10.162;2022-10-16T12:14:33;99297.59;;;22.07;100.00
28588;BME280;15787;49.662;10.162;2022-10-16T12:17:26;99295.41;;;22.27;99.64
28588;BME280;15787;49.662;10.162;2022-10-16T12:19:59;99287.38;;;22.57;98.71
28588;BME280;15787;49.662;10.162;2022-10-16T12:22:28;99300.84;;;22.99;96.12
28588;BME280;15787;49.662;10.162;2022-10-16T12:24:57;99290.81;;;23.14;91.63
28588;BME280;15787;49.662;10.162;2022-10-16T12:27:28;99291.53;;;22.61;93.35
28588;BME280;15787;49.662;10.162;2022-10-16T12:29:59;99288.22;;;22.63;93.29
28588;BME280;15787;49.662;10.162;2022-10-16T12:32:31;99288.59;;;22.45;91.32
28588;BME280;15787;49.662;10.162;2022-10-16T12:35:18;99290.91;;;23.31;89.27
28588;BME280;15787;49.662;10.162;2022-10-16T12:37:48;99287.72;;;23.12;90.29
28588;BME280;15787;49.662;10.162;2022-10-16T12:40:28;99292.00;;;23.45;89.83
28588;BME280;15787;49.662;10.162;2022-10-16T12:42:57;99290.56;;;23.12;86.88
28588;BME280;15787;49.662;10.162;2022-10-16T12:45:29;99293.88;;;23.59;88.69
28588;BME280;15787;49.662;10.162;2022-10-16T12:48:00;99301.66;;;23.64;84.52
28588;BME280;15787;49.662;10.162;2022-10-16T12:50:34;99302.91;;;23.57;84.09
28588;BME280;15787;49.662;10.162;2022-10-16T12:53:04;99301.66;;;23.64;82.46
28588;BME280;15787;49.662;10.162;2022-10-16T12:55:51;99308.44;;;23.72;84.72
28588;BME280;15787;49.662;10.162;2022-10-16T12:58:37;99303.81;;;23.21;86.04
28588;BME280;15787;49.662;10.162;2022-10-16T13:01:21;99314.31;;;23.46;83.97
28588;BME280;15787;49.662;10.162;2022-10-16T13:04:06;99314.41;;;23.79;85.30